createdAt,value
2023-03-26T00:02:04.705Z,53.87
2023-03-26T00:07:07.080Z,54.73
2023-03-26T00:12:11.159Z,54.77
2023-03-26T00:17:13.587Z,54.23
2023-03-26T00:22:17.336Z,54.20
2023-03-26T00:27:19.959Z,54.04
2023-03-26T00:32:23.243Z,53.48
2023-03-26T00:37:27.037Z,53.84
2023-03-26T00:42:29.740Z,53.33
2023-03-26T00:47:32.179Z,53.74
2023-03-26T00:52:36.886Z,53.99
2023-03-26T00:57:41.362Z,53.62
2023-03-26T01:02:45.391Z,53.45
2023-03-26T01:07:48.212Z,54.31
2023-03-26T01:12:51.278Z,54.40
2023-03-26T01:17:58.119Z,55.10
2023-03-26T01:23:05.506Z,54.38
2023-03-26T01:28:12.857Z,55.83
2023-03-26T01:33:30.538Z,55.86
2023-03-26T01:39:00.576Z,56.68
2023-03-26T01:44:19.522Z,56.56
2023-03-26T01:49:22.492Z,55.93
2023-03-26T01:54:29.996Z,56.78
2023-03-26T01:59:43.818Z,57.58
2023-03-26T02:05:00.748Z,59.18
2023-03-26T02:10:11.539Z,59.05
2023-03-26T02:15:14.869Z,59.04
2023-03-26T02:20:19.165Z,57.36
2023-03-26T02:25:22.810Z,59.00
2023-03-26T02:30:26.578Z,58.28
2023-03-26T02:35:32.809Z,59.16
2023-03-26T02:40:37.704Z,57.77
2023-03-26T02:45:41.884Z,58.46
2023-03-26T02:51:04.310Z,59.57
2023-03-26T02:56:27.661Z,58.45
2023-03-26T03:01:51.429Z,57.54
2023-03-26T03:06:57.880Z,58.12
2023-03-26T03:12:01.904Z,58.57
2023-03-26T03:17:04.866Z,59.05
2023-03-26T03:22:08.454Z,59.35
2023-03-26T03:27:12.827Z,57.36
2023-03-26T03:32:26.263Z,57.97
2023-03-26T03:37:32.878Z,56.65
2023-03-26T03:42:37.821Z,56.73
2023-03-26T03:47:42.899Z,56.33
2023-03-26T03:52:46.028Z,56.86
2023-03-26T03:57:52.768Z,56.67
2023-03-26T04:02:59.183Z,55.73
2023-03-26T04:08:04.268Z,55.70
2023-03-26T04:13:18.400Z,54.90
2023-03-26T04:18:27.926Z,55.01
2023-03-26T04:23:32.768Z,54.35
2023-03-26T04:28:51.134Z,54.83
2023-03-26T04:34:07.990Z,54.29
2023-03-26T04:39:18.965Z,54.16
2023-03-26T04:44:43.162Z,51.67
2023-03-26T04:49:48.748Z,48.05
2023-03-26T04:54:53.921Z,46.31
2023-03-26T05:00:00.387Z,44.62
2023-03-26T05:05:08.774Z,43.65
2023-03-26T05:10:13.712Z,41.01
2023-03-26T05:23:08.732Z,36.33
2023-03-26T05:29:29.155Z,36.10
2023-03-26T05:42:08.053Z,34.14
2023-03-26T05:47:27.705Z,33.53
2023-03-26T05:52:31.743Z,33.28
2023-03-26T05:58:34.858Z,32.66
2023-03-26T06:05:10.085Z,33.08
2023-03-26T06:11:00.137Z,33.74
2023-03-26T06:17:22.682Z,34.37
2023-03-26T06:22:48.684Z,35.13
2023-03-26T06:28:43.756Z,35.68
2023-03-26T06:34:05.600Z,35.34
2023-03-26T06:39:08.291Z,35.42
2023-03-26T06:44:15.805Z,36.18
2023-03-26T06:49:38.418Z,35.33
2023-03-26T06:54:54.886Z,34.17
2023-03-26T07:00:21.528Z,34.20
2023-03-26T07:05:42.946Z,34.41
2023-03-26T07:11:04.229Z,33.35
2023-03-26T07:16:38.622Z,33.59
2023-03-26T07:21:55.179Z,33.18
2023-03-26T07:27:38.563Z,33.19
2023-03-26T07:32:47.213Z,33.21
2023-03-26T07:38:28.309Z,33.39
2023-03-26T07:44:20.617Z,33.45
2023-03-26T07:49:58.011Z,32.95
2023-03-26T07:55:25.820Z,31.69
2023-03-26T08:01:10.824Z,30.32
2023-03-26T08:06:35.686Z,29.76
2023-03-26T08:12:18.840Z,29.38
2023-03-26T08:17:31.124Z,30.39
2023-03-26T08:22:42.054Z,30.05
2023-03-26T08:28:04.572Z,29.98
2023-03-26T08:33:19.128Z,28.60
2023-03-26T08:38:24.429Z,27.83
2023-03-26T10:08:48.307Z,26.58
2023-03-26T10:21:02.199Z,26.94
2023-03-26T10:26:20.194Z,26.69
2023-03-26T10:31:27.715Z,26.69
2023-03-26T10:36:35.174Z,27.05
2023-03-26T10:42:16.696Z,26.70
2023-03-26T10:47:46.261Z,27.15
2023-03-26T10:52:59.569Z,26.83
2023-03-26T10:58:13.762Z,26.66
2023-03-26T11:03:54.749Z,26.88
2023-03-26T11:09:29.303Z,26.92
2023-03-26T11:14:44.466Z,27.44
2023-03-26T11:19:58.051Z,26.52
2023-03-26T11:25:38.156Z,26.70
2023-03-26T11:30:57.288Z,26.76
2023-03-26T11:36:09.061Z,26.85
2023-03-26T11:41:14.088Z,26.36
2023-03-26T11:46:59.335Z,26.77
2023-03-26T11:52:03.671Z,26.45
2023-03-26T11:57:27.125Z,26.09
2023-03-26T12:02:40.100Z,25.85
2023-03-26T12:07:53.824Z,24.72
2023-03-26T12:13:00.378Z,24.78
2023-03-26T12:18:25.422Z,24.37
2023-03-26T12:23:38.331Z,24.36
2023-03-26T12:28:50.085Z,24.23
2023-03-26T12:34:23.196Z,24.49
2023-03-26T12:40:43.067Z,25.11
2023-03-26T12:47:54.578Z,24.77
2023-03-26T12:51:38.670Z,24.95
2023-03-26T12:57:11.628Z,25.47
2023-03-26T13:02:47.464Z,25.46
2023-03-26T13:08:00.643Z,25.76
2023-03-26T13:13:12.102Z,26.00
2023-03-26T13:18:38.946Z,26.12
2023-03-26T13:23:44.763Z,26.44
2023-03-26T13:29:09.077Z,26.94
2023-03-26T13:34:36.573Z,26.87
2023-03-26T13:40:09.703Z,27.39
2023-03-26T13:45:12.109Z,27.74
2023-03-26T13:50:32.133Z,27.49
2023-03-26T13:55:37.636Z,27.47
2023-03-26T14:01:02.878Z,27.25
2023-03-26T14:06:21.824Z,27.57
2023-03-26T14:11:45.519Z,27.89
2023-03-26T14:16:56.354Z,28.54
2023-03-26T14:22:38.890Z,28.79
2023-03-26T14:28:06.927Z,28.92
2023-03-26T14:33:38.849Z,29.56
2023-03-26T14:38:44.576Z,29.38
2023-03-26T14:44:24.436Z,30.00
2023-03-26T14:49:52.236Z,31.07
2023-03-26T14:55:01.814Z,31.84
2023-03-26T15:01:04.159Z,32.28
2023-03-26T15:06:50.186Z,33.15
2023-03-26T15:12:13.058Z,33.20
2023-03-26T15:17:50.236Z,33.32
2023-03-26T15:23:30.170Z,33.90
2023-03-26T15:28:33.885Z,34.17
2023-03-26T15:33:49.025Z,34.88
2023-03-26T15:39:09.763Z,35.35
2023-03-26T15:44:22.839Z,35.85
2023-03-26T15:49:52.504Z,35.94
2023-03-26T15:55:11.306Z,36.51
2023-03-26T16:00:29.924Z,36.87
2023-03-26T16:05:38.490Z,37.02
2023-03-26T16:10:50.178Z,37.47
2023-03-26T16:16:07.401Z,37.80
2023-03-26T16:21:31.361Z,37.71
2023-03-26T16:27:08.182Z,38.05
2023-03-26T16:32:28.977Z,38.70
2023-03-26T16:37:43.114Z,40.55
2023-03-26T16:43:07.265Z,41.21
2023-03-26T16:48:31.524Z,40.45
2023-03-26T16:53:57.961Z,39.83
2023-03-26T16:59:10.484Z,39.12
2023-03-26T17:04:23.892Z,39.12
2023-03-26T17:09:29.806Z,40.07
2023-03-26T17:14:54.046Z,40.99
2023-03-26T17:20:24.075Z,41.60
2023-03-26T17:25:37.882Z,42.45
2023-03-26T17:31:41.950Z,43.12
2023-03-26T17:36:46.132Z,44.07
2023-03-26T17:42:11.390Z,45.02
2023-03-26T17:47:26.745Z,46.03
2023-03-26T17:52:39.089Z,46.90
2023-03-26T17:57:44.503Z,47.56
2023-03-26T18:02:56.202Z,47.38
2023-03-26T18:08:04.661Z,47.59
2023-03-26T18:13:40.990Z,48.28
2023-03-26T18:18:58.219Z,48.87
2023-03-26T18:24:02.173Z,48.85
2023-03-26T18:29:30.063Z,49.14
2023-03-26T18:34:34.276Z,49.36
2023-03-26T18:39:38.448Z,49.62
2023-03-26T18:44:41.484Z,49.84
2023-03-26T18:49:46.172Z,50.06
2023-03-26T18:54:53.012Z,53.30
2023-03-26T19:00:09.305Z,53.15
2023-03-26T19:05:17.247Z,53.77
2023-03-26T19:10:22.363Z,54.52
2023-03-26T19:15:26.738Z,54.22
2023-03-26T19:20:37.627Z,54.54
2023-03-26T19:25:55.064Z,54.02
2023-03-26T19:31:06.754Z,54.26
2023-03-26T19:36:15.213Z,54.62
2023-03-26T19:41:25.886Z,54.96
2023-03-26T19:46:33.026Z,55.58
2023-03-26T19:51:37.136Z,56.17
2023-03-26T19:56:39.738Z,56.55
2023-03-26T20:01:42.758Z,56.40
2023-03-26T20:06:49.379Z,56.76
2023-03-26T20:11:52.828Z,57.10
2023-03-26T20:16:55.397Z,56.84
2023-03-26T20:21:58.366Z,57.26
2023-03-26T20:27:00.850Z,57.88
2023-03-26T20:32:06.529Z,58.50
2023-03-26T20:37:10.290Z,59.12
2023-03-26T20:42:16.446Z,59.47
2023-03-26T20:47:22.519Z,59.78
2023-03-26T20:52:25.845Z,60.21
2023-03-26T20:57:28.381Z,60.26
2023-03-26T21:02:31.403Z,60.87
2023-03-26T21:07:34.861Z,60.92
2023-03-26T21:12:42.484Z,61.73
2023-03-26T21:17:45.910Z,61.14
2023-03-26T21:23:19.625Z,62.09
2023-03-26T21:28:42.252Z,61.54
2023-03-26T21:33:46.087Z,61.69
2023-03-26T21:38:51.212Z,61.48
2023-03-26T21:43:53.575Z,61.98
2023-03-26T21:48:57.299Z,61.61
2023-03-26T21:54:00.636Z,61.81
2023-03-26T21:59:27.682Z,61.58
2023-03-26T22:04:56.486Z,62.02
2023-03-26T22:09:58.916Z,61.31
2023-03-26T22:15:01.857Z,61.27
2023-03-26T22:20:12.642Z,61.82
2023-03-26T22:25:19.137Z,60.55
2023-03-26T22:30:23.554Z,61.41
2023-03-26T22:35:26.894Z,60.70
2023-03-26T22:40:30.743Z,61.10
2023-03-26T22:45:33.026Z,60.54
2023-03-26T22:50:35.930Z,60.41
2023-03-26T22:55:38.813Z,60.83
2023-03-26T23:00:41.903Z,61.42
2023-03-26T23:05:44.369Z,61.34
2023-03-26T23:10:47.302Z,60.94
2023-03-26T23:15:51.503Z,60.83
2023-03-26T23:20:56.689Z,60.49
2023-03-26T23:26:02.502Z,61.13
2023-03-26T23:31:07.154Z,60.92
2023-03-26T23:36:10.220Z,60.98
2023-03-26T23:41:15.458Z,61.29
2023-03-26T23:46:18.894Z,61.53
2023-03-26T23:51:22.481Z,61.39
2023-03-26T23:56:27.857Z,61.13
